Time;durP1;ratioP1;P1;durP2;ratioP2;P2;SDS_P1;SDS_P2;PMS_P1;PMS_P2;Temp;Humidity;BMP_temperature;BMP_pressure;BME280_temperature;BME280_humidity;BME280_pressure;Samples;Min_cycle;Max_cycle;Signal;HPM_P1;HPM_P2
2022/11/27 00:01:45;;;;;;;56.77;21.70;;;;;;;-141.28;100.00;50400.88;5113613;28;20935;-77
2022/11/27 00:04:12;;;;;;;57.50;20.57;;;;;;;-141.28;100.00;50377.31;5113817;28;20449;-74
2022/11/27 00:06:40;;;;;;;80.60;26.50;;;;;;;-141.28;100.00;50400.88;5100716;28;20880;-74
2022/11/27 00:09:10;;;;;;;82.03;24.90;;;;;;;-141.28;100.00;50420.50;5112192;28;20452;-75
2022/11/27 00:11:39;;;;;;;81.50;26.77;;;;;;;-141.28;100.00;50404.81;5106211;28;20450;-77
2022/11/27 00:14:07;;;;;;;49.17;16.90;;;;;;;-141.28;100.00;50396.94;5107811;28;20453;-75
2022/11/27 00:16:37;;;;;;;25.53;13.67;;;;;;;-141.28;100.00;50406.75;5113657;28;20444;-76
2022/11/27 00:19:05;;;;;;;37.93;14.80;;;;;;;-141.28;100.00;50420.50;5112401;28;20857;-77
2022/11/27 00:21:33;;;;;;;38.23;16.23;;;;;;;-141.28;100.00;50444.06;5113097;28;20495;-77
2022/11/27 00:24:02;;;;;;;54.00;21.47;;;;;;;-141.28;100.00;50477.44;5113312;28;20528;-75
2022/11/27 00:26:30;;;;;;;63.03;23.40;;;;;;;-141.28;100.00;50499.00;5113549;28;20456;-77
2022/11/27 00:28:58;;;;;;;60.30;25.63;;;;;;;-141.28;100.00;50489.19;5112948;28;20452;-75
2022/11/27 00:31:28;;;;;;;68.43;24.67;;;;;;;-141.28;100.00;50552.00;5112938;28;20445;-74
2022/11/27 00:33:59;;;;;;;61.47;24.03;;;;;;;-141.28;100.00;50591.28;5112643;28;20456;-77
2022/11/27 00:36:29;;;;;;;66.77;25.03;;;;;;;-141.28;100.00;50595.19;5101554;28;20449;-74
2022/11/27 00:38:56;;;;;;;65.97;27.63;;;;;;;-141.28;100.00;50622.69;5098415;28;20520;-75
2022/11/27 00:41:24;;;;;;;64.97;27.67;;;;;;;-141.28;100.00;50642.31;5112839;28;20998;-74
2022/11/27 00:43:52;;;;;;;63.63;29.13;;;;;;;-141.28;100.00;50703.16;5112913;28;20473;-78
2022/11/27 00:46:23;;;;;;;69.87;33.03;;;;;;;-141.28;100.00;50691.38;5112430;28;20458;-75
2022/11/27 00:48:51;;;;;;;73.83;34.07;;;;;;;-141.28;100.00;50722.78;5099443;28;20441;-75
2022/11/27 00:51:22;;;;;;;72.67;35.40;;;;;;;-141.28;100.00;50767.94;5112537;28;20982;-75
2022/11/27 00:53:49;;;;;;;78.37;36.87;;;;;;;-141.28;100.00;50838.63;5112580;28;20449;-78
2022/11/27 00:56:18;;;;;;;88.27;39.13;;;;;;;-141.28;100.00;50981.91;5112467;28;20453;-74
2022/11/27 00:58:46;;;;;;;84.80;39.10;;;;;;;-141.28;100.00;50923.03;5112528;28;20453;-76
2022/11/27 01:01:18;;;;;;;91.70;39.87;;;;;;;-141.28;100.00;51160.56;5112627;28;21014;-78
2022/11/27 01:03:46;;;;;;;90.57;39.63;;;;;;;-141.28;100.00;51154.69;5120168;28;20487;-73
2022/11/27 01:06:14;;;;;;;90.47;38.40;;;;;;;-141.28;100.00;51235.19;5125881;28;20474;-74
2022/11/27 01:08:43;;;;;;;84.53;37.47;;;;;;;-141.28;100.00;51327.44;5121861;28;20448;-75
2022/11/27 01:11:14;;;;;;;88.17;41.53;;;;;;;-141.28;100.00;51299.97;5105464;28;20488;-74
2022/11/27 01:13:41;;;;;;;96.17;41.93;;;;;;;-141.28;100.00;51270.50;5118545;28;20537;-73
2022/11/27 01:16:11;;;;;;;94.77;41.53;;;;;;;-141.28;100.00;51227.31;5112627;28;20518;-75
2022/11/27 01:18:40;;;;;;;100.33;44.93;;;;;;;-141.28;100.00;51138.97;5110831;28;20471;-74
2022/11/27 01:21:08;;;;;;;114.17;47.13;;;;;;;-141.28;100.00;51144.88;5119344;28;20502;-75
2022/11/27 01:23:35;;;;;;;110.60;48.03;;;;;;;-141.28;100.00;51225.34;5114420;28;20468;-74
2022/11/27 01:26:05;;;;;;;116.27;46.70;;;;;;;-141.28;100.00;51319.59;5113572;28;20445;-74
2022/11/27 01:28:35;;;;;;;105.17;45.20;;;;;;;-141.28;100.00;51453.09;5117544;28;20816;-73
2022/11/27 01:31:06;;;;;;;89.67;39.57;;;;;;;-141.28;100.00;51506.13;5112944;28;20449;-77
2022/11/27 01:33:33;;;;;;;79.90;35.60;;;;;;;-141.28;100.00;51651.41;5112486;28;20441;-76
2022/11/27 01:36:02;;;;;;;83.33;36.10;;;;;;;-141.28;100.00;51720.16;5100020;28;20450;-75
2022/11/27 01:38:30;;;;;;;72.10;34.47;;;;;;;-141.28;100.00;51857.59;5111701;28;20478;-73
2022/11/27 01:40:58;;;;;;;77.57;33.73;;;;;;;-141.28;100.00;52022.56;5112034;28;20816;-76
2022/11/27 01:43:44;;;;;;;72.00;33.53;;;;;;;-141.28;100.00;51995.06;5097750;28;20510;-74
2022/11/27 01:46:26;;;;;;;69.97;32.73;;;;;;;-141.28;100.00;52069.69;5111962;28;20907;-75
2022/11/27 01:48:55;;;;;;;66.13;31.10;;;;;;;-141.28;100.00;52093.25;5099062;28;20874;-74
2022/11/27 01:51:23;;;;;;;70.10;33.00;;;;;;;-141.28;100.00;52016.66;5110574;28;20444;-74
2022/11/27 01:53:51;;;;;;;67.07;31.03;;;;;;;-141.28;100.00;51967.56;5111677;28;20474;-77
2022/11/27 01:56:22;;;;;;;62.87;31.37;;;;;;;-141.28;100.00;52040.22;5112184;28;20448;-77
2022/11/27 01:58:51;;;;;;;64.73;30.70;;;;;;;-141.28;100.00;52057.91;5111376;28;20520;-75
2022/11/27 02:01:19;;;;;;;67.13;31.40;;;;;;;-141.28;100.00;51932.22;5111506;28;20502;-73
2022/11/27 02:03:46;;;;;;;61.27;31.03;;;;;;;-141.28;100.00;51949.91;5111461;28;20505;-77
2022/11/27 02:06:14;;;;;;;60.43;30.87;;;;;;;-141.28;100.00;51983.28;5111878;28;20453;-75
2022/11/27 02:08:42;;;;;;;69.37;31.37;;;;;;;-141.28;100.00;51906.69;5111276;28;20445;-75
2022/11/27 02:11:15;;;;;;;61.70;29.90;;;;;;;-141.28;100.00;51788.88;5102679;28;20453;-75
2022/11/27 02:13:48;;;;;;;65.87;30.07;;;;;;;-141.28;100.00;51757.47;5094580;28;20444;-76
2022/11/27 02:16:27;;;;;;;66.47;30.07;;;;;;;-141.28;100.00;51576.81;5111720;28;20440;-75
2022/11/27 02:19:00;;;;;;;65.43;30.97;;;;;;;-141.28;100.00;51547.34;5111598;28;20456;-75
2022/11/27 02:21:36;;;;;;;68.83;31.40;;;;;;;-141.28;100.00;51464.88;5111373;28;20484;-76
2022/11/27 02:24:43;;;;;;;58.03;30.40;;;;;;;-141.28;100.00;51256.78;5111606;28;20992;-75
2022/11/27 02:27:33;;;;;;;66.17;30.60;;;;;;;-141.28;100.00;51176.28;5098103;28;20514;-75
2022/11/27 02:30:05;;;;;;;63.00;29.80;;;;;;;-141.28;100.00;51170.38;5111286;28;20861;-75
2022/11/27 02:32:37;;;;;;;68.73;30.13;;;;;;;-141.28;100.00;51129.16;5111215;28;20505;-74
2022/11/27 02:35:09;;;;;;;73.77;30.20;;;;;;;-141.28;100.00;51158.59;5111237;28;20452;-75
2022/11/27 02:37:43;;;;;;;65.33;29.50;;;;;;;-141.28;100.00;51127.19;5111660;28;20456;-75
2022/11/27 02:40:13;;;;;;;70.77;29.40;;;;;;;-141.28;100.00;51178.25;5099190;28;20444;-76
2022/11/27 02:42:44;;;;;;;63.53;30.73;;;;;;;-141.28;100.00;51148.78;5111306;28;20485;-76
2022/11/27 02:45:14;;;;;;;62.20;29.03;;;;;;;-141.28;100.00;51138.97;5111322;28;20452;-75
2022/11/27 02:47:44;;;;;;;62.47;29.73;;;;;;;-141.28;100.00;51121.31;5111293;28;20437;-75
2022/11/27 02:50:15;;;;;;;63.10;30.90;;;;;;;-141.28;100.00;51005.47;5111486;28;20502;-74
2022/11/27 02:52:44;;;;;;;67.50;30.93;;;;;;;-141.28;100.00;51007.44;5112372;28;21023;-75
2022/11/27 02:55:15;;;;;;;69.13;31.33;;;;;;;-141.28;100.00;50978.00;5115706;28;20441;-78
2022/11/27 02:57:44;;;;;;;65.73;29.43;;;;;;;-141.28;100.00;50895.53;5115834;28;20511;-77
2022/11/27 03:00:15;;;;;;;52.30;28.30;;;;;;;-141.28;100.00;50871.97;5116123;28;20444;-75
2022/11/27 03:02:46;;;;;;;63.57;29.50;;;;;;;-141.28;100.00;50820.94;5116901;28;21021;-74
2022/11/27 03:05:18;;;;;;;59.33;29.13;;;;;;;-141.28;100.00;50820.94;5117236;28;20490;-75
2022/11/27 03:07:52;;;;;;;55.00;26.43;;;;;;;-141.28;100.00;50864.13;5114976;28;20452;-75
2022/11/27 03:10:24;;;;;;;56.20;28.20;;;;;;;-141.28;100.00;50856.28;5115246;28;20514;-75
2022/11/27 03:12:51;;;;;;;55.83;26.93;;;;;;;-141.28;100.00;50852.34;5115133;28;20871;-74
2022/11/27 03:15:21;;;;;;;55.57;26.40;;;;;;;-141.28;100.00;50828.78;5112163;28;20592;-76
2022/11/27 03:17:55;;;;;;;55.90;26.30;;;;;;;-141.28;100.00;50809.16;5104992;28;20444;-75
2022/11/27 03:20:26;;;;;;;59.03;26.90;;;;;;;-141.28;100.00;50748.31;5110220;28;20444;-76
2022/11/27 03:22:53;;;;;;;46.27;22.83;;;;;;;-141.28;100.00;50769.91;5107231;28;20480;-76
2022/11/27 03:25:21;;;;;;;48.27;23.60;;;;;;;-141.28;100.00;50789.53;5100215;28;20535;-73
2022/11/27 03:27:52;;;;;;;46.87;22.77;;;;;;;-141.28;100.00;50817.03;5115009;28;20457;-77
2022/11/27 03:30:20;;;;;;;48.40;23.67;;;;;;;-141.28;100.00;50809.16;5114147;28;20452;-77
2022/11/27 03:32:48;;;;;;;48.33;24.50;;;;;;;-141.28;100.00;50852.34;5114267;28;20453;-80
2022/11/27 03:35:18;;;;;;;50.13;23.93;;;;;;;-141.28;100.00;50887.69;5114426;28;20501;-77
2022/11/27 03:37:46;;;;;;;50.70;24.73;;;;;;;-141.28;100.00;50895.53;5114073;28;20452;-77
2022/11/27 03:40:15;;;;;;;56.13;24.87;;;;;;;-141.28;100.00;50954.44;5114310;28;20460;-79
2022/11/27 03:42:55;;;;;;;56.17;25.90;;;;;;;-141.28;100.00;50983.88;5113876;28;20512;-75
2022/11/27 03:45:31;;;;;;;55.70;25.10;;;;;;;-141.28;100.00;50919.09;5114339;28;20453;-75
2022/11/27 03:48:10;;;;;;;63.27;25.70;;;;;;;-141.28;100.00;51013.31;5114083;28;20440;-75
2022/11/27 03:50:48;;;;;;;49.53;25.03;;;;;;;-141.28;100.00;51001.56;5114497;28;20452;-76
2022/11/27 03:53:23;;;;;;;58.97;26.93;;;;;;;-141.28;100.00;51015.28;5114377;28;20455;-74
2022/11/27 03:56:00;;;;;;;52.93;25.43;;;;;;;-141.28;100.00;51054.56;5114263;28;20962;-76
2022/11/27 03:58:34;;;;;;;52.67;25.47;;;;;;;-141.28;100.00;51036.88;5114141;28;20896;-77
2022/11/27 04:01:06;;;;;;;55.53;26.47;;;;;;;-141.28;100.00;51048.66;5100625;28;20442;-77
2022/11/27 04:03:34;;;;;;;59.67;26.17;;;;;;;-141.28;100.00;51084.00;5113567;28;20488;-77
2022/11/27 04:06:02;;;;;;;60.17;27.73;;;;;;;-141.28;100.00;51180.19;5112844;28;20445;-75
2022/11/27 04:08:29;;;;;;;55.73;25.60;;;;;;;-141.28;100.00;51197.88;5113640;28;20983;-75
2022/11/27 04:10:57;;;;;;;57.30;26.53;;;;;;;-141.28;100.00;51252.84;5113524;28;20461;-75
2022/11/27 04:13:24;;;;;;;51.67;25.13;;;;;;;-141.28;100.00;51351.00;5113426;28;20440;-77
2022/11/27 04:15:52;;;;;;;52.00;24.63;;;;;;;-141.28;100.00;51358.88;5113607;28;20456;-78
2022/11/27 04:18:20;;;;;;;54.53;23.63;;;;;;;-141.28;100.00;51398.13;5113514;28;20476;-77
2022/11/27 04:20:48;;;;;;;61.13;25.90;;;;;;;-141.28;100.00;51488.44;5113291;28;20445;-77
2022/11/27 04:23:17;;;;;;;59.93;25.20;;;;;;;-141.28;100.00;51523.78;5113606;28;20492;-78
2022/11/27 04:25:45;;;;;;;53.70;26.07;;;;;;;-141.28;100.00;51580.72;5112012;28;20437;-74
2022/11/27 04:28:12;;;;;;;53.50;25.10;;;;;;;-141.28;100.00;51614.13;5113037;28;20448;-76
2022/11/27 04:30:40;;;;;;;58.37;25.47;;;;;;;-141.28;100.00;51643.56;5113274;28;20488;-75
2022/11/27 04:33:08;;;;;;;52.20;25.20;;;;;;;-141.28;100.00;51649.47;5113010;28;20456;-75
2022/11/27 04:35:36;;;;;;;56.17;25.47;;;;;;;-141.28;100.00;51621.97;5113153;28;20498;-75
2022/11/27 04:38:04;;;;;;;55.33;25.97;;;;;;;-141.28;100.00;51598.41;5112697;28;20951;-77
2022/11/27 04:40:32;;;;;;;60.63;26.93;;;;;;;-141.28;100.00;51437.41;5113092;28;20484;-79
2022/11/27 04:43:00;;;;;;;62.23;26.70;;;;;;;-141.28;100.00;51445.25;5112463;28;20480;-75
2022/11/27 04:45:27;;;;;;;53.70;26.20;;;;;;;-141.28;100.00;51459.00;5112783;28;21038;-76
2022/11/27 04:47:55;;;;;;;59.07;25.77;;;;;;;-141.28;100.00;51411.88;5112366;28;20954;-75
2022/11/27 04:50:22;;;;;;;62.87;27.03;;;;;;;-141.28;100.00;51406.00;5113277;28;20441;-78
2022/11/27 04:52:51;;;;;;;66.57;27.73;;;;;;;-141.28;100.00;51439.38;5112629;28;20437;-75
2022/11/27 04:55:18;;;;;;;63.13;27.30;;;;;;;-141.28;100.00;51040.81;5112962;28;20844;-76
2022/11/27 04:57:45;;;;;;;60.47;26.37;;;;;;;-141.28;100.00;51427.59;5112549;28;20445;-74
2022/11/27 05:00:13;;;;;;;62.10;29.00;;;;;;;-141.28;100.00;51567.00;5112769;28;20445;-77
2022/11/27 05:02:40;;;;;;;62.67;27.80;;;;;;;-141.28;100.00;51728.00;5111682;28;20510;-75
2022/11/27 05:05:08;;;;;;;59.80;29.17;;;;;;;-141.28;100.00;51839.94;5112180;28;20831;-76
2022/11/27 05:07:35;;;;;;;61.20;27.70;;;;;;;-141.28;100.00;51839.94;5099524;28;20445;-74
2022/11/27 05:10:04;;;;;;;76.93;36.00;;;;;;;-141.28;100.00;51908.66;5112243;28;20453;-75
2022/11/27 05:12:31;;;;;;;63.00;30.03;;;;;;;-141.28;100.00;51936.16;5112539;28;20445;-76
2022/11/27 05:14:58;;;;;;;61.30;28.50;;;;;;;-141.28;100.00;51967.56;5112265;28;20534;-78
2022/11/27 05:17:25;;;;;;;73.17;34.00;;;;;;;-141.28;100.00;51991.13;5112298;28;20956;-74
2022/11/27 05:19:52;;;;;;;67.13;29.00;;;;;;;-141.28;100.00;52069.69;5111847;28;20469;-78
2022/11/27 05:22:19;;;;;;;60.93;26.77;;;;;;;-141.28;100.00;52046.13;5111618;28;21046;-77
2022/11/27 05:24:46;;;;;;;68.57;29.23;;;;;;;-141.28;100.00;52132.53;5110853;28;20453;-74
2022/11/27 05:27:15;;;;;;;65.77;32.37;;;;;;;-141.28;100.00;52093.25;5100155;28;20832;-75
2022/11/27 05:29:42;;;;;;;75.50;31.90;;;;;;;-141.28;100.00;52050.03;5111657;28;20456;-74
2022/11/27 05:32:10;;;;;;;66.20;31.40;;;;;;;-141.28;100.00;52046.13;5112580;28;20892;-78
2022/11/27 05:34:37;;;;;;;73.67;31.47;;;;;;;-141.28;100.00;52050.03;5112286;28;20444;-74
2022/11/27 05:37:04;;;;;;;73.67;35.10;;;;;;;-141.28;100.00;52022.56;5112026;28;20453;-74
2022/11/27 05:39:31;;;;;;;83.50;35.10;;;;;;;-141.28;100.00;51971.50;5111991;28;20452;-74
2022/11/27 05:41:58;;;;;;;76.00;35.83;;;;;;;-141.28;100.00;52055.94;5111912;28;20449;-76
2022/11/27 05:44:27;;;;;;;77.47;35.27;;;;;;;-141.28;100.00;52083.44;5111650;28;20445;-74
2022/11/27 05:46:55;;;;;;;67.60;31.87;;;;;;;-141.28;100.00;52069.69;5111663;28;20942;-74
2022/11/27 05:49:23;;;;;;;57.13;26.47;;;;;;;-141.28;100.00;52246.44;5112106;28;20888;-75
2022/11/27 05:51:50;;;;;;;55.33;25.87;;;;;;;-141.28;100.00;52344.63;5111844;28;20889;-74
2022/11/27 05:54:17;;;;;;;51.33;24.50;;;;;;;-141.28;100.00;52360.34;5111673;28;20440;-75
2022/11/27 05:56:44;;;;;;;46.97;23.50;;;;;;;-141.28;100.00;52429.06;5111792;28;20452;-75
2022/11/27 05:59:11;;;;;;;49.23;24.63;;;;;;;-141.28;100.00;52431.03;5111937;28;20510;-76
2022/11/27 06:01:39;;;;;;;63.97;25.07;;;;;;;-141.28;100.00;52434.97;5112009;28;20441;-75
2022/11/27 06:04:06;;;;;;;51.00;23.17;;;;;;;-141.28;100.00;52513.53;5111388;28;20541;-75
2022/11/27 06:06:33;;;;;;;49.47;23.80;;;;;;;-141.28;100.00;52501.75;5111711;28;20449;-78
2022/11/27 06:09:00;;;;;;;54.17;23.67;;;;;;;-141.28;100.00;52527.28;5111616;28;20467;-77
2022/11/27 06:11:27;;;;;;;45.77;23.30;;;;;;;-141.28;100.00;52515.50;5112117;28;20498;-75
2022/11/27 06:13:54;;;;;;;46.63;22.67;;;;;;;-141.28;100.00;52529.25;5099728;28;20444;-74
2022/11/27 06:16:23;;;;;;;49.80;21.77;;;;;;;-141.28;100.00;52468.34;5112241;28;20448;-75
2022/11/27 06:18:54;;;;;;;45.00;21.97;;;;;;;-141.28;100.00;52391.75;5111665;28;20901;-77
2022/11/27 06:21:22;;;;;;;48.87;22.60;;;;;;;-141.28;100.00;52427.13;5111700;28;20449;-74
2022/11/27 06:23:49;;;;;;;41.13;20.50;;;;;;;-141.28;100.00;52395.69;5101625;28;20484;-75
2022/11/27 06:26:18;;;;;;;54.20;25.27;;;;;;;-141.28;100.00;51987.22;5113687;28;20441;-79
2022/11/27 06:28:48;;;;;;;47.60;26.00;;;;;;;-141.28;100.00;52417.28;5113705;28;20820;-77
2022/11/27 06:31:18;;;;;;;46.90;24.00;;;;;;;-141.28;100.00;52073.63;5115847;28;20451;-75
2022/11/27 06:33:46;;;;;;;45.90;23.57;;;;;;;-141.28;100.00;52344.63;5115580;28;20879;-75
2022/11/27 06:36:15;;;;;;;50.87;23.83;;;;;;;-141.28;100.00;52273.94;5114647;28;20480;-77
2022/11/27 06:38:42;;;;;;;52.80;24.00;;;;;;;-141.28;100.00;52297.50;5116205;28;20444;-76
2022/11/27 06:41:12;;;;;;;61.47;27.97;;;;;;;-141.28;100.00;52207.16;5112369;28;20448;-76
2022/11/27 06:43:39;;;;;;;51.27;24.47;;;;;;;-141.28;100.00;52158.06;5115268;28;20915;-76
2022/11/27 06:46:10;;;;;;;59.43;27.33;;;;;;;-141.28;100.00;52177.69;5115050;28;20457;-77
2022/11/27 06:48:38;;;;;;;46.87;23.77;;;;;;;-141.28;100.00;52146.28;5123070;28;20463;-73
2022/11/27 06:51:08;;;;;;;46.63;22.47;;;;;;;-141.28;100.00;52116.81;5123551;28;20501;-73
2022/11/27 06:53:37;;;;;;;48.33;22.70;;;;;;;-141.28;100.00;52114.84;5122474;28;20452;-74
2022/11/27 06:56:05;;;;;;;45.63;23.23;;;;;;;-141.28;100.00;52065.75;5111752;28;20470;-72
2022/11/27 06:58:33;;;;;;;50.03;23.23;;;;;;;-141.28;100.00;52018.63;5125023;28;20873;-73
2022/11/27 07:01:01;;;;;;;41.07;22.70;;;;;;;-141.28;100.00;51977.38;5124295;28;20453;-74
2022/11/27 07:03:28;;;;;;;48.50;23.53;;;;;;;-141.28;100.00;51944.00;5114873;28;21013;-76
2022/11/27 07:05:55;;;;;;;53.30;24.30;;;;;;;-141.28;100.00;51916.50;5115017;28;20457;-79
2022/11/27 07:08:23;;;;;;;43.03;22.87;;;;;;;-141.28;100.00;51759.41;5114655;28;20539;-74
2022/11/27 07:10:51;;;;;;;50.53;22.90;;;;;;;-141.28;100.00;51682.84;5114634;28;20959;-75
2022/11/27 07:13:18;;;;;;;44.07;21.70;;;;;;;-141.28;100.00;51692.66;5114492;28;20868;-78
2022/11/27 07:15:45;;;;;;;40.37;22.07;;;;;;;-141.28;100.00;51669.09;5115192;28;20954;-76
2022/11/27 07:18:12;;;;;;;39.97;21.70;;;;;;;-141.28;100.00;51698.53;5110289;28;20473;-78
2022/11/27 07:20:40;;;;;;;42.07;21.87;;;;;;;-141.28;100.00;51665.16;5107487;28;20959;-77
2022/11/27 07:23:07;;;;;;;38.33;20.77;;;;;;;-141.28;100.00;51478.63;5114853;28;20521;-77
2022/11/27 07:25:39;;;;;;;46.47;21.63;;;;;;;-141.28;100.00;51472.75;5113441;28;20445;-75
2022/11/27 07:28:08;;;;;;;43.23;20.80;;;;;;;-141.28;100.00;51407.94;5114449;28;21034;-78
2022/11/27 07:30:35;;;;;;;45.37;22.97;;;;;;;-141.28;100.00;51262.66;5105052;28;20446;-79
2022/11/27 07:33:03;;;;;;;38.00;21.03;;;;;;;-141.28;100.00;51245.00;5109737;28;20475;-76
2022/11/27 07:35:30;;;;;;;39.47;22.13;;;;;;;-141.28;100.00;51162.53;5114154;28;20517;-76
2022/11/27 07:37:57;;;;;;;42.90;22.93;;;;;;;-141.28;100.00;51137.00;5114033;28;20457;-74
2022/11/27 07:40:24;;;;;;;39.67;21.60;;;;;;;-141.28;100.00;51078.13;5112663;28;20509;-75
2022/11/27 07:42:52;;;;;;;52.33;23.33;;;;;;;-141.28;100.00;51042.78;5113676;28;20571;-74
2022/11/27 07:45:22;;;;;;;49.00;23.43;;;;;;;-141.28;100.00;50976.03;5113876;28;20475;-77
2022/11/27 07:47:49;;;;;;;48.57;23.93;;;;;;;-141.28;100.00;50950.50;5113870;28;20436;-74
2022/11/27 07:50:16;;;;;;;45.73;22.93;;;;;;;-141.28;100.00;50938.72;5113962;28;20453;-76
2022/11/27 07:52:44;;;;;;;50.23;24.17;;;;;;;-141.28;100.00;50903.41;5113847;28;20452;-78
2022/11/27 07:55:11;;;;;;;42.67;23.83;;;;;;;-141.28;100.00;50742.41;5093377;28;20457;-75
2022/11/27 07:57:39;;;;;;;47.97;22.67;;;;;;;-141.28;100.00;50716.91;5106743;28;20449;-77
2022/11/27 08:00:07;;;;;;;46.67;22.77;;;;;;;-141.28;100.00;50701.19;5113668;28;20950;-75
2022/11/27 08:02:38;;;;;;;42.87;22.90;;;;;;;-141.28;100.00;50634.47;5113418;28;20505;-76
2022/11/27 08:05:06;;;;;;;48.00;23.67;;;;;;;-141.28;100.00;50544.16;5113572;28;20495;-76
2022/11/27 08:07:34;;;;;;;43.60;23.10;;;;;;;-141.28;100.00;50557.91;5113518;27;20877;-75
2022/11/27 08:10:01;;;;;;;49.57;24.20;;;;;;;-141.28;100.00;50518.66;5114098;28;20456;-76
2022/11/27 08:12:28;;;;;;;43.67;22.80;;;;;;;-141.28;100.00;50514.72;5113653;28;20463;-77
2022/11/27 08:14:56;;;;;;;48.60;24.37;;;;;;;-141.28;100.00;50516.69;5113340;28;20456;-77
2022/11/27 08:17:23;;;;;;;49.73;23.73;;;;;;;-141.28;100.00;50518.66;5112665;28;20460;-75
2022/11/27 08:19:53;;;;;;;42.73;24.00;;;;;;;-141.28;100.00;50495.09;5113861;28;20472;-75
2022/11/27 08:22:20;;;;;;;51.17;25.50;;;;;;;-141.28;100.00;50502.94;5113256;28;20494;-75
2022/11/27 08:24:47;;;;;;;47.60;24.40;;;;;;;-141.28;100.00;50526.50;5111657;28;20542;-77
2022/11/27 08:27:16;;;;;;;48.43;24.37;;;;;;;-141.28;100.00;50508.81;5113127;28;20891;-76
2022/11/27 08:29:44;;;;;;;55.37;24.30;;;;;;;-141.28;100.00;50483.31;5111039;28;20825;-75
2022/11/27 08:32:12;;;;;;;50.40;25.87;;;;;;;-141.28;100.00;50499.00;5102376;28;20464;-77
2022/11/27 08:34:39;;;;;;;55.07;25.70;;;;;;;-141.28;100.00;50489.19;5112973;28;20880;-75
2022/11/27 08:37:08;;;;;;;67.63;27.07;;;;;;;-141.28;100.00;50483.31;5113904;28;20990;-74
2022/11/27 08:39:37;;;;;;;61.03;26.10;;;;;;;-141.28;100.00;50483.31;5112735;28;20448;-75
2022/11/27 08:42:04;;;;;;;54.93;26.53;;;;;;;-141.28;100.00;50471.53;5112752;28;20939;-74
2022/11/27 08:44:31;;;;;;;55.00;27.57;;;;;;;-141.28;100.00;50463.69;5112521;28;20567;-74
2022/11/27 08:46:57;;;;;;;56.00;26.67;;;;;;;-141.28;100.00;50471.53;5112572;28;20463;-75
2022/11/27 08:49:24;;;;;;;54.30;26.97;;;;;;;-141.28;100.00;50471.53;5112568;28;20463;-75
2022/11/27 08:51:51;;;;;;;50.37;27.60;;;;;;;-141.28;100.00;50436.19;5111388;28;20472;-76
2022/11/27 08:54:20;;;;;;;55.50;27.67;;;;;;;-141.28;100.00;50465.66;5112465;28;20823;-75
2022/11/27 08:56:47;;;;;;;63.80;30.90;;;;;;;-141.28;100.00;50479.38;5112720;28;20497;-75
2022/11/27 08:59:14;;;;;;;54.43;30.13;;;;;;;-141.28;100.00;50463.69;5112509;28;20521;-74
2022/11/27 09:01:42;;;;;;;63.63;31.67;;;;;;;-141.28;100.00;50447.97;5112498;28;20840;-79
2022/11/27 09:04:09;;;;;;;63.33;31.50;;;;;;;-141.28;100.00;50463.69;5112047;28;20545;-79
2022/11/27 09:06:38;;;;;;;66.03;31.57;;;;;;;-141.28;100.00;50467.59;5112759;28;20494;-75
2022/11/27 09:09:06;;;;;;;61.70;31.90;;;;;;;-141.28;100.00;50436.19;5112357;28;20551;-75
2022/11/27 09:11:35;;;;;;;59.57;30.47;;;;;;;-141.28;100.00;50432.28;5112562;28;20974;-75
2022/11/27 09:14:03;;;;;;;62.63;32.47;;;;;;;-141.28;100.00;50455.84;5112219;28;20990;-79
2022/11/27 09:16:31;;;;;;;68.13;31.97;;;;;;;-141.28;100.00;50408.72;5112164;28;20456;-75
2022/11/27 09:18:58;;;;;;;62.87;31.43;;;;;;;-141.28;100.00;50455.84;5112357;28;20464;-75
2022/11/27 09:21:27;;;;;;;59.43;31.43;;;;;;;-141.28;100.00;50465.66;5112467;28;20818;-75
2022/11/27 09:23:54;;;;;;;59.47;30.47;;;;;;;-141.28;100.00;50453.88;5111932;28;20476;-75
2022/11/27 09:26:22;;;;;;;61.50;31.67;;;;;;;-141.28;100.00;50487.25;5111014;28;20978;-76
2022/11/27 09:28:50;;;;;;;58.63;31.27;;;;;;;-141.28;100.00;50451.91;5111737;28;20866;-75
2022/11/27 09:31:18;;;;;;;66.90;31.67;;;;;;;-141.28;100.00;50420.50;5112176;28;20440;-77
2022/11/27 09:33:46;;;;;;;54.67;28.57;;;;;;;-141.28;100.00;50451.91;5112096;28;20452;-74
2022/11/27 09:36:16;;;;;;;54.43;27.00;;;;;;;-141.28;100.00;50497.06;5112582;28;20878;-78
2022/11/27 09:38:43;;;;;;;52.80;28.47;;;;;;;-141.28;100.00;50502.94;5111649;28;20456;-77
2022/11/27 09:41:35;;;;;;;50.17;28.17;;;;;;;-141.28;100.00;50530.41;5112203;28;20541;-77
2022/11/27 09:44:07;;;;;;;56.00;29.97;;;;;;;-141.28;100.00;50608.94;5101594;28;21044;-74
2022/11/27 09:46:39;;;;;;;54.83;28.20;;;;;;;-141.28;100.00;50605.00;5118950;28;20445;-77
2022/11/27 09:49:09;;;;;;;47.40;25.03;;;;;;;-141.28;100.00;50650.16;5113022;28;20505;-77
2022/11/27 09:51:40;;;;;;;52.93;27.37;;;;;;;-141.28;100.00;50679.59;5112077;28;20494;-74
2022/11/27 09:54:13;;;;;;;50.37;25.20;;;;;;;-141.28;100.00;50673.72;5103809;28;20461;-74
2022/11/27 09:56:43;;;;;;;50.23;26.40;;;;;;;-141.28;100.00;50685.50;5090564;28;20449;-76
2022/11/27 09:59:18;;;;;;;45.10;22.33;;;;;;;-141.28;100.00;50703.16;5111838;28;20505;-76
2022/11/27 10:01:45;;;;;;;42.00;23.83;;;;;;;-141.28;100.00;50707.09;5111562;28;20502;-78
2022/11/27 10:04:15;;;;;;;44.60;25.13;;;;;;;-141.28;100.00;50648.19;5114481;28;20480;-76
2022/11/27 10:06:59;;;;;;;42.33;23.40;;;;;;;-141.28;100.00;50683.53;5115752;28;20444;-76
2022/11/27 10:09:34;;;;;;;41.30;22.60;;;;;;;-141.28;100.00;50663.91;5116339;28;20448;-79
2022/11/27 10:12:12;;;;;;;40.00;23.33;;;;;;;-141.28;100.00;50777.75;5116161;28;20436;-76
2022/11/27 10:14:58;;;;;;;41.07;22.13;;;;;;;-141.28;100.00;50758.13;5116127;28;20456;-78
2022/11/27 10:17:32;;;;;;;51.97;24.87;;;;;;;-141.28;100.00;50742.41;5116389;28;20934;-74
2022/11/27 10:20:09;;;;;;;47.63;25.90;;;;;;;-141.28;100.00;50722.78;5117046;28;20506;-78
2022/11/27 10:22:45;;;;;;;52.07;25.90;;;;;;;-141.28;100.00;50705.13;5119898;28;20530;-76
2022/11/27 10:25:19;;;;;;;46.70;24.73;;;;;;;-141.28;100.00;50687.47;5117101;28;20484;-78
2022/11/27 10:28:00;;;;;;;44.97;24.03;;;;;;;-141.28;100.00;50659.97;5119324;28;20444;-76
2022/11/27 10:30:32;;;;;;;47.13;25.57;;;;;;;-141.28;100.00;50705.13;5120321;28;20444;-79
2022/11/27 10:33:00;;;;;;;42.27;23.23;;;;;;;-141.28;100.00;50742.41;5117298;28;20480;-78
2022/11/27 10:35:30;;;;;;;45.00;23.80;;;;;;;-141.28;100.00;50744.38;5117117;28;20452;-75
2022/11/27 10:38:04;;;;;;;41.07;23.57;;;;;;;-141.28;100.00;50797.38;5115483;28;20509;-78
2022/11/27 10:40:37;;;;;;;49.13;26.07;;;;;;;-141.28;100.00;50762.06;5115861;28;21010;-78
2022/11/27 10:43:11;;;;;;;47.63;24.87;;;;;;;-141.28;100.00;50762.06;5115121;28;20440;-80
2022/11/27 10:45:48;;;;;;;45.30;25.13;;;;;;;-141.28;100.00;50758.13;5115785;28;20484;-76
2022/11/27 10:48:17;;;;;;;46.13;25.17;;;;;;;-141.28;100.00;50711.00;5108293;28;20448;-78
2022/11/27 10:50:46;;;;;;;44.80;24.17;;;;;;;-141.28;100.00;50687.47;5110458;28;20432;-76
2022/11/27 10:53:19;;;;;;;46.73;25.07;;;;;;;-141.28;100.00;50671.75;5115387;28;20456;-79
2022/11/27 10:56:02;;;;;;;50.77;26.47;;;;;;;-141.28;100.00;50663.91;5115086;28;21004;-76
2022/11/27 10:58:35;;;;;;;51.90;27.27;;;;;;;-141.28;100.00;50656.06;5115257;28;20461;-78
2022/11/27 11:01:11;;;;;;;48.93;27.17;;;;;;;-141.28;100.00;50644.28;5115155;28;20456;-79
2022/11/27 11:03:39;;;;;;;59.93;29.70;;;;;;;-141.28;100.00;50597.16;5115070;28;20441;-77
2022/11/27 11:06:10;;;;;;;68.27;33.80;;;;;;;-141.28;100.00;50587.34;5115132;28;20506;-80